sensor_id;sensor_type;location;lat;lon;timestamp;P1;durP1;ratioP1;P2;durP2;ratioP2
75793;SDS011;64418;47.536;19.074;2023-12-07T00:01:04;10.27;;;5.40;;
75793;SDS011;64418;47.536;19.074;2023-12-07T00:03:31;10.88;;;5.72;;
75793;SDS011;64418;47.536;19.074;2023-12-07T00:05:57;11.53;;;5.30;;
75793;SDS011;64418;47.536;19.074;2023-12-07T00:08:24;9.15;;;4.85;;
75793;SDS011;64418;47.536;19.074;2023-12-07T00:10:50;10.45;;;5.53;;
75793;SDS011;64418;47.536;19.074;2023-12-07T00:13:16;10.20;;;5.35;;
75793;SDS011;64418;47.536;19.074;2023-12-07T00:15:42;10.05;;;5.47;;
75793;SDS011;64418;47.536;19.074;2023-12-07T00:18:10;10.13;;;5.47;;
75793;SDS011;64418;47.536;19.074;2023-12-07T00:20:36;12.57;;;5.00;;
75793;SDS011;64418;47.536;19.074;2023-12-07T00:23:02;9.45;;;5.25;;
75793;SDS011;64418;47.536;19.074;2023-12-07T00:25:28;8.30;;;4.87;;
75793;SDS011;64418;47.536;19.074;2023-12-07T00:27:54;9.35;;;4.65;;
75793;SDS011;64418;47.536;19.074;2023-12-07T00:30:20;9.47;;;4.97;;
75793;SDS011;64418;47.536;19.074;2023-12-07T00:32:49;6.87;;;3.85;;
75793;SDS011;64418;47.536;19.074;2023-12-07T00:35:16;6.45;;;3.35;;
75793;SDS011;64418;47.536;19.074;2023-12-07T00:37:42;8.35;;;3.83;;
75793;SDS011;64418;47.536;19.074;2023-12-07T00:40:08;5.72;;;3.42;;
75793;SDS011;64418;47.536;19.074;2023-12-07T00:42:39;6.83;;;3.47;;
75793;SDS011;64418;47.536;19.074;2023-12-07T00:45:05;7.18;;;3.50;;
75793;SDS011;64418;47.536;19.074;2023-12-07T00:47:31;6.25;;;3.67;;
75793;SDS011;64418;47.536;19.074;2023-12-07T00:49:57;4.53;;;2.93;;
75793;SDS011;64418;47.536;19.074;2023-12-07T00:52:24;4.07;;;2.73;;
75793;SDS011;64418;47.536;19.074;2023-12-07T00:54:50;4.45;;;2.85;;
75793;SDS011;64418;47.536;19.074;2023-12-07T00:57:16;3.70;;;2.37;;
75793;SDS011;64418;47.536;19.074;2023-12-07T00:59:45;6.43;;;2.87;;
75793;SDS011;64418;47.536;19.074;2023-12-07T01:02:11;3.92;;;2.65;;
75793;SDS011;64418;47.536;19.074;2023-12-07T01:04:37;4.82;;;2.45;;
75793;SDS011;64418;47.536;19.074;2023-12-07T01:07:03;5.53;;;2.53;;
75793;SDS011;64418;47.536;19.074;2023-12-07T01:09:31;4.65;;;2.62;;
75793;SDS011;64418;47.536;19.074;2023-12-07T01:11:58;3.37;;;2.33;;
75793;SDS011;64418;47.536;19.074;2023-12-07T01:14:24;5.13;;;2.67;;
75793;SDS011;64418;47.536;19.074;2023-12-07T01:16:50;3.30;;;2.03;;
75793;SDS011;64418;47.536;19.074;2023-12-07T01:19:16;4.18;;;2.65;;
75793;SDS011;64418;47.536;19.074;2023-12-07T01:21:42;4.47;;;2.30;;
75793;SDS011;64418;47.536;19.074;2023-12-07T01:24:08;4.50;;;2.73;;
75793;SDS011;64418;47.536;19.074;2023-12-07T01:26:37;4.03;;;2.67;;
75793;SDS011;64418;47.536;19.074;2023-12-07T01:29:03;4.10;;;2.42;;
75793;SDS011;64418;47.536;19.074;2023-12-07T01:31:29;4.25;;;2.78;;
75793;SDS011;64418;47.536;19.074;2023-12-07T01:33:55;5.60;;;2.63;;
75793;SDS011;64418;47.536;19.074;2023-12-07T01:36:21;4.30;;;2.50;;
75793;SDS011;64418;47.536;19.074;2023-12-07T01:38:47;4.28;;;2.65;;
75793;SDS011;64418;47.536;19.074;2023-12-07T01:41:13;4.43;;;2.90;;
75793;SDS011;64418;47.536;19.074;2023-12-07T01:43:45;5.43;;;3.20;;
75793;SDS011;64418;47.536;19.074;2023-12-07T01:46:12;4.72;;;3.05;;
75793;SDS011;64418;47.536;19.074;2023-12-07T01:48:39;5.15;;;2.75;;
75793;SDS011;64418;47.536;19.074;2023-12-07T01:51:05;4.45;;;3.12;;
75793;SDS011;64418;47.536;19.074;2023-12-07T01:53:33;5.50;;;3.65;;
75793;SDS011;64418;47.536;19.074;2023-12-07T01:55:59;5.17;;;3.43;;
75793;SDS011;64418;47.536;19.074;2023-12-07T01:58:25;4.68;;;2.87;;
75793;SDS011;64418;47.536;19.074;2023-12-07T02:00:53;3.62;;;2.70;;
75793;SDS011;64418;47.536;19.074;2023-12-07T02:03:19;4.70;;;3.03;;
75793;SDS011;64418;47.536;19.074;2023-12-07T02:05:46;6.77;;;4.13;;
75793;SDS011;64418;47.536;19.074;2023-12-07T02:08:13;6.43;;;3.70;;
75793;SDS011;64418;47.536;19.074;2023-12-07T02:10:39;5.47;;;3.45;;
75793;SDS011;64418;47.536;19.074;2023-12-07T02:13:06;5.50;;;3.40;;
75793;SDS011;64418;47.536;19.074;2023-12-07T02:15:32;6.10;;;3.63;;
75793;SDS011;64418;47.536;19.074;2023-12-07T02:18:01;7.07;;;4.00;;
75793;SDS011;64418;47.536;19.074;2023-12-07T02:20:33;5.12;;;3.33;;
75793;SDS011;64418;47.536;19.074;2023-12-07T02:23:05;4.93;;;3.47;;
75793;SDS011;64418;47.536;19.074;2023-12-07T02:25:35;5.00;;;3.25;;
75793;SDS011;64418;47.536;19.074;2023-12-07T02:28:03;5.77;;;3.33;;
75793;SDS011;64418;47.536;19.074;2023-12-07T02:30:29;7.53;;;4.25;;
75793;SDS011;64418;47.536;19.074;2023-12-07T02:32:55;7.18;;;3.30;;
75793;SDS011;64418;47.536;19.074;2023-12-07T02:35:23;5.25;;;3.17;;
75793;SDS011;64418;47.536;19.074;2023-12-07T02:37:50;6.20;;;3.35;;
75793;SDS011;64418;47.536;19.074;2023-12-07T02:40:17;5.20;;;3.20;;
75793;SDS011;64418;47.536;19.074;2023-12-07T02:42:45;4.95;;;3.12;;
75793;SDS011;64418;47.536;19.074;2023-12-07T02:45:14;5.15;;;3.17;;
75793;SDS011;64418;47.536;19.074;2023-12-07T02:47:41;5.65;;;3.45;;
75793;SDS011;64418;47.536;19.074;2023-12-07T02:50:07;4.28;;;3.00;;
75793;SDS011;64418;47.536;19.074;2023-12-07T02:52:37;5.63;;;3.03;;
75793;SDS011;64418;47.536;19.074;2023-12-07T02:55:04;2.85;;;2.25;;
75793;SDS011;64418;47.536;19.074;2023-12-07T02:57:31;6.70;;;3.45;;
75793;SDS011;64418;47.536;19.074;2023-12-07T02:59:57;4.00;;;2.75;;
75793;SDS011;64418;47.536;19.074;2023-12-07T03:02:24;4.62;;;3.10;;
75793;SDS011;64418;47.536;19.074;2023-12-07T03:04:50;5.90;;;3.30;;
75793;SDS011;64418;47.536;19.074;2023-12-07T03:07:16;4.87;;;2.87;;
75793;SDS011;64418;47.536;19.074;2023-12-07T03:09:42;5.53;;;3.05;;
75793;SDS011;64418;47.536;19.074;2023-12-07T03:12:08;4.63;;;3.00;;
75793;SDS011;64418;47.536;19.074;2023-12-07T03:14:33;6.47;;;2.72;;
75793;SDS011;64418;47.536;19.074;2023-12-07T03:16:59;4.43;;;2.80;;
75793;SDS011;64418;47.536;19.074;2023-12-07T03:19:27;8.00;;;3.53;;
75793;SDS011;64418;47.536;19.074;2023-12-07T03:21:53;4.17;;;2.80;;
75793;SDS011;64418;47.536;19.074;2023-12-07T03:24:19;5.10;;;3.20;;
75793;SDS011;64418;47.536;19.074;2023-12-07T03:26:45;5.80;;;3.30;;
75793;SDS011;64418;47.536;19.074;2023-12-07T03:29:10;3.92;;;2.60;;
75793;SDS011;64418;47.536;19.074;2023-12-07T03:31:38;5.03;;;2.67;;
75793;SDS011;64418;47.536;19.074;2023-12-07T03:34:05;4.75;;;2.42;;
75793;SDS011;64418;47.536;19.074;2023-12-07T03:36:32;4.23;;;2.07;;
75793;SDS011;64418;47.536;19.074;2023-12-07T03:38:58;3.60;;;2.15;;
75793;SDS011;64418;47.536;19.074;2023-12-07T03:41:26;3.85;;;2.60;;
75793;SDS011;64418;47.536;19.074;2023-12-07T03:43:52;4.78;;;2.60;;
75793;SDS011;64418;47.536;19.074;2023-12-07T03:46:18;4.53;;;2.70;;
75793;SDS011;64418;47.536;19.074;2023-12-07T03:48:43;4.90;;;2.80;;
75793;SDS011;64418;47.536;19.074;2023-12-07T03:51:12;5.37;;;2.80;;
75793;SDS011;64418;47.536;19.074;2023-12-07T03:53:40;4.10;;;2.55;;
75793;SDS011;64418;47.536;19.074;2023-12-07T03:56:06;4.53;;;2.30;;
75793;SDS011;64418;47.536;19.074;2023-12-07T03:58:32;4.70;;;2.70;;
75793;SDS011;64418;47.536;19.074;2023-12-07T04:00:58;4.75;;;2.72;;
75793;SDS011;64418;47.536;19.074;2023-12-07T04:03:24;5.97;;;2.73;;
75793;SDS011;64418;47.536;19.074;2023-12-07T04:05:50;5.72;;;2.75;;
75793;SDS011;64418;47.536;19.074;2023-12-07T04:08:16;6.68;;;2.83;;
75793;SDS011;64418;47.536;19.074;2023-12-07T04:10:43;6.03;;;2.60;;
75793;SDS011;64418;47.536;19.074;2023-12-07T04:13:11;4.22;;;2.80;;
75793;SDS011;64418;47.536;19.074;2023-12-07T04:15:36;6.20;;;2.90;;
75793;SDS011;64418;47.536;19.074;2023-12-07T04:18:03;5.25;;;2.83;;
75793;SDS011;64418;47.536;19.074;2023-12-07T04:20:28;5.68;;;2.80;;
75793;SDS011;64418;47.536;19.074;2023-12-07T04:22:54;5.30;;;2.80;;
75793;SDS011;64418;47.536;19.074;2023-12-07T04:25:20;4.62;;;3.15;;
75793;SDS011;64418;47.536;19.074;2023-12-07T04:27:48;5.43;;;3.23;;
75793;SDS011;64418;47.536;19.074;2023-12-07T04:30:13;5.87;;;3.50;;
75793;SDS011;64418;47.536;19.074;2023-12-07T04:32:39;3.90;;;2.75;;
75793;SDS011;64418;47.536;19.074;2023-12-07T04:35:05;4.80;;;3.08;;
75793;SDS011;64418;47.536;19.074;2023-12-07T04:37:31;5.50;;;3.07;;
75793;SDS011;64418;47.536;19.074;2023-12-07T04:40:00;4.82;;;2.78;;
75793;SDS011;64418;47.536;19.074;2023-12-07T04:42:26;5.03;;;2.72;;
75793;SDS011;64418;47.536;19.074;2023-12-07T04:44:53;5.00;;;2.57;;
75793;SDS011;64418;47.536;19.074;2023-12-07T04:47:19;6.82;;;3.42;;
75793;SDS011;64418;47.536;19.074;2023-12-07T04:49:45;5.45;;;3.10;;
75793;SDS011;64418;47.536;19.074;2023-12-07T04:52:11;5.30;;;2.70;;
75793;SDS011;64418;47.536;19.074;2023-12-07T04:54:36;4.17;;;2.60;;
75793;SDS011;64418;47.536;19.074;2023-12-07T04:57:02;4.22;;;2.50;;
75793;SDS011;64418;47.536;19.074;2023-12-07T04:59:29;5.32;;;2.80;;
75793;SDS011;64418;47.536;19.074;2023-12-07T05:01:57;30.37;;;13.83;;
75793;SDS011;64418;47.536;19.074;2023-12-07T05:04:22;19.77;;;10.43;;
75793;SDS011;64418;47.536;19.074;2023-12-07T05:06:48;18.40;;;11.10;;
75793;SDS011;64418;47.536;19.074;2023-12-07T05:09:14;19.60;;;11.77;;
75793;SDS011;64418;47.536;19.074;2023-12-07T05:11:40;8.40;;;4.95;;
75793;SDS011;64418;47.536;19.074;2023-12-07T05:14:05;4.80;;;3.03;;
75793;SDS011;64418;47.536;19.074;2023-12-07T05:16:32;5.37;;;3.10;;
75793;SDS011;64418;47.536;19.074;2023-12-07T05:19:00;5.60;;;3.28;;
75793;SDS011;64418;47.536;19.074;2023-12-07T05:21:26;4.12;;;2.70;;
75793;SDS011;64418;47.536;19.074;2023-12-07T05:23:52;5.53;;;2.58;;
75793;SDS011;64418;47.536;19.074;2023-12-07T05:26:18;5.83;;;2.90;;
75793;SDS011;64418;47.536;19.074;2023-12-07T05:28:43;4.50;;;3.08;;
75793;SDS011;64418;47.536;19.074;2023-12-07T05:31:15;4.77;;;2.83;;
75793;SDS011;64418;47.536;19.074;2023-12-07T05:33:41;3.83;;;2.70;;
75793;SDS011;64418;47.536;19.074;2023-12-07T05:36:09;4.60;;;2.50;;
75793;SDS011;64418;47.536;19.074;2023-12-07T05:38:35;3.95;;;2.42;;
75793;SDS011;64418;47.536;19.074;2023-12-07T05:41:01;6.53;;;2.78;;
75793;SDS011;64418;47.536;19.074;2023-12-07T05:43:27;4.10;;;2.53;;
75793;SDS011;64418;47.536;19.074;2023-12-07T05:45:56;3.42;;;2.55;;
75793;SDS011;64418;47.536;19.074;2023-12-07T05:48:22;3.95;;;2.08;;
75793;SDS011;64418;47.536;19.074;2023-12-07T05:50:48;3.40;;;2.28;;
75793;SDS011;64418;47.536;19.074;2023-12-07T05:53:16;6.50;;;2.83;;
75793;SDS011;64418;47.536;19.074;2023-12-07T05:55:42;8.60;;;3.10;;
75793;SDS011;64418;47.536;19.074;2023-12-07T05:58:08;3.78;;;2.60;;
75793;SDS011;64418;47.536;19.074;2023-12-07T06:00:34;4.75;;;2.90;;
75793;SDS011;64418;47.536;19.074;2023-12-07T06:03:01;5.57;;;2.90;;
75793;SDS011;64418;47.536;19.074;2023-12-07T06:05:27;3.33;;;2.40;;
75793;SDS011;64418;47.536;19.074;2023-12-07T06:07:56;3.60;;;2.67;;
75793;SDS011;64418;47.536;19.074;2023-12-07T06:10:26;4.30;;;2.42;;
75793;SDS011;64418;47.536;19.074;2023-12-07T06:12:52;7.72;;;3.30;;
75793;SDS011;64418;47.536;19.074;2023-12-07T06:15:22;5.37;;;3.07;;
75793;SDS011;64418;47.536;19.074;2023-12-07T06:17:48;5.60;;;2.53;;
75793;SDS011;64418;47.536;19.074;2023-12-07T06:20:17;6.57;;;3.58;;
75793;SDS011;64418;47.536;19.074;2023-12-07T06:22:42;4.57;;;2.72;;
75793;SDS011;64418;47.536;19.074;2023-12-07T06:25:11;7.27;;;3.03;;
75793;SDS011;64418;47.536;19.074;2023-12-07T06:27:39;6.00;;;3.97;;
75793;SDS011;64418;47.536;19.074;2023-12-07T06:30:06;10.45;;;4.32;;
75793;SDS011;64418;47.536;19.074;2023-12-07T06:32:45;10.13;;;3.67;;
75793;SDS011;64418;47.536;19.074;2023-12-07T06:35:14;8.02;;;3.80;;
75793;SDS011;64418;47.536;19.074;2023-12-07T06:37:40;8.67;;;3.63;;
75793;SDS011;64418;47.536;19.074;2023-12-07T06:40:07;8.07;;;4.78;;
75793;SDS011;64418;47.536;19.074;2023-12-07T06:42:34;6.93;;;4.12;;
75793;SDS011;64418;47.536;19.074;2023-12-07T06:45:02;9.33;;;4.27;;
75793;SDS011;64418;47.536;19.074;2023-12-07T06:47:28;6.78;;;3.97;;
75793;SDS011;64418;47.536;19.074;2023-12-07T06:49:54;8.05;;;3.85;;
75793;SDS011;64418;47.536;19.074;2023-12-07T06:52:20;9.02;;;5.18;;
75793;SDS011;64418;47.536;19.074;2023-12-07T06:54:47;11.85;;;6.43;;
75793;SDS011;64418;47.536;19.074;2023-12-07T06:57:13;8.87;;;4.97;;
75793;SDS011;64418;47.536;19.074;2023-12-07T06:59:40;8.43;;;4.95;;
75793;SDS011;64418;47.536;19.074;2023-12-07T07:02:11;8.85;;;4.60;;
75793;SDS011;64418;47.536;19.074;2023-12-07T07:04:36;10.55;;;5.90;;
75793;SDS011;64418;47.536;19.074;2023-12-07T07:07:03;15.15;;;7.85;;
75793;SDS011;64418;47.536;19.074;2023-12-07T07:09:28;9.57;;;5.90;;
75793;SDS011;64418;47.536;19.074;2023-12-07T07:11:55;12.63;;;6.25;;
75793;SDS011;64418;47.536;19.074;2023-12-07T07:14:21;11.35;;;6.35;;
75793;SDS011;64418;47.536;19.074;2023-12-07T07:16:50;11.63;;;6.68;;
75793;SDS011;64418;47.536;19.074;2023-12-07T07:19:18;13.95;;;7.12;;
75793;SDS011;64418;47.536;19.074;2023-12-07T07:21:47;18.77;;;9.73;;
75793;SDS011;64418;47.536;19.074;2023-12-07T07:24:13;14.27;;;7.78;;
75793;SDS011;64418;47.536;19.074;2023-12-07T07:26:39;12.80;;;7.53;;
75793;SDS011;64418;47.536;19.074;2023-12-07T07:29:06;17.15;;;8.73;;
75793;SDS011;64418;47.536;19.074;2023-12-07T07:31:32;15.25;;;6.85;;
75793;SDS011;64418;47.536;19.074;2023-12-07T07:33:58;13.37;;;6.80;;
75793;SDS011;64418;47.536;19.074;2023-12-07T07:36:25;15.02;;;7.37;;
75793;SDS011;64418;47.536;19.074;2023-12-07T07:38:52;12.95;;;6.85;;
75793;SDS011;64418;47.536;19.074;2023-12-07T07:41:20;16.23;;;7.47;;
75793;SDS011;64418;47.536;19.074;2023-12-07T07:43:47;15.18;;;7.47;;
75793;SDS011;64418;47.536;19.074;2023-12-07T07:46:13;13.20;;;6.83;;
75793;SDS011;64418;47.536;19.074;2023-12-07T07:48:40;12.77;;;6.62;;
75793;SDS011;64418;47.536;19.074;2023-12-07T07:51:06;11.55;;;6.32;;
75793;SDS011;64418;47.536;19.074;2023-12-07T07:53:33;9.27;;;5.40;;
75793;SDS011;64418;47.536;19.074;2023-12-07T07:56:00;11.48;;;6.37;;
75793;SDS011;64418;47.536;19.074;2023-12-07T07:58:26;12.90;;;6.63;;
75793;SDS011;64418;47.536;19.074;2023-12-07T08:00:53;11.73;;;6.65;;
75793;SDS011;64418;47.536;19.074;2023-12-07T08:03:19;11.73;;;6.78;;
75793;SDS011;64418;47.536;19.074;2023-12-07T08:05:45;8.98;;;6.20;;
75793;SDS011;64418;47.536;19.074;2023-12-07T08:08:11;10.67;;;6.57;;
75793;SDS011;64418;47.536;19.074;2023-12-07T08:10:38;10.50;;;5.82;;
75793;SDS011;64418;47.536;19.074;2023-12-07T08:13:04;11.20;;;6.03;;
75793;SDS011;64418;47.536;19.074;2023-12-07T08:15:30;11.38;;;6.72;;
75793;SDS011;64418;47.536;19.074;2023-12-07T08:17:56;17.07;;;7.40;;
75793;SDS011;64418;47.536;19.074;2023-12-07T08:20:22;15.80;;;8.25;;
75793;SDS011;64418;47.536;19.074;2023-12-07T08:22:48;14.70;;;6.80;;
75793;SDS011;64418;47.536;19.074;2023-12-07T08:25:14;11.18;;;6.60;;
75793;SDS011;64418;47.536;19.074;2023-12-07T08:27:44;12.70;;;7.00;;
75793;SDS011;64418;47.536;19.074;2023-12-07T08:30:11;17.87;;;8.33;;
75793;SDS011;64418;47.536;19.074;2023-12-07T08:32:39;18.52;;;7.78;;
75793;SDS011;64418;47.536;19.074;2023-12-07T08:35:05;20.15;;;8.70;;
75793;SDS011;64418;47.536;19.074;2023-12-07T08:37:31;13.68;;;6.35;;
75793;SDS011;64418;47.536;19.074;2023-12-07T08:39:57;14.97;;;7.30;;
75793;SDS011;64418;47.536;19.074;2023-12-07T08:42:24;14.20;;;7.82;;
75793;SDS011;64418;47.536;19.074;2023-12-07T08:44:52;16.30;;;8.13;;
75793;SDS011;64418;47.536;19.074;2023-12-07T08:47:18;16.35;;;8.65;;
75793;SDS011;64418;47.536;19.074;2023-12-07T08:49:44;14.93;;;7.77;;
75793;SDS011;64418;47.536;19.074;2023-12-07T08:52:10;13.43;;;7.78;;
75793;SDS011;64418;47.536;19.074;2023-12-07T08:54:36;18.58;;;8.60;;
75793;SDS011;64418;47.536;19.074;2023-12-07T08:57:05;17.15;;;7.78;;
75793;SDS011;64418;47.536;19.074;2023-12-07T08:59:34;18.30;;;9.23;;
75793;SDS011;64418;47.536;19.074;2023-12-07T09:02:02;14.75;;;7.45;;
75793;SDS011;64418;47.536;19.074;2023-12-07T09:04:29;14.82;;;7.85;;
75793;SDS011;64418;47.536;19.074;2023-12-07T09:06:55;16.55;;;8.23;;
75793;SDS011;64418;47.536;19.074;2023-12-07T09:09:21;22.77;;;10.57;;
75793;SDS011;64418;47.536;19.074;2023-12-07T09:11:47;15.65;;;8.95;;
75793;SDS011;64418;47.536;19.074;2023-12-07T09:14:14;21.27;;;10.40;;
75793;SDS011;64418;47.536;19.074;2023-12-07T09:16:43;23.90;;;12.82;;
75793;SDS011;64418;47.536;19.074;2023-12-07T09:19:12;26.65;;;14.48;;
75793;SDS011;64418;47.536;19.074;2023-12-07T09:21:39;19.60;;;8.50;;
75793;SDS011;64418;47.536;19.074;2023-12-07T09:24:06;21.95;;;11.35;;
75793;SDS011;64418;47.536;19.074;2023-12-07T09:26:33;25.70;;;14.90;;
75793;SDS011;64418;47.536;19.074;2023-12-07T09:29:00;19.20;;;10.15;;
75793;SDS011;64418;47.536;19.074;2023-12-07T09:31:30;22.30;;;11.38;;
75793;SDS011;64418;47.536;19.074;2023-12-07T09:33:55;19.27;;;8.90;;
75793;SDS011;64418;47.536;19.074;2023-12-07T09:36:23;13.90;;;7.78;;
75793;SDS011;64418;47.536;19.074;2023-12-07T09:38:49;17.77;;;8.80;;
75793;SDS011;64418;47.536;19.074;2023-12-07T09:41:16;16.75;;;8.25;;
75793;SDS011;64418;47.536;19.074;2023-12-07T09:43:45;18.13;;;8.50;;
75793;SDS011;64418;47.536;19.074;2023-12-07T09:46:11;16.35;;;8.02;;
75793;SDS011;64418;47.536;19.074;2023-12-07T09:48:39;15.27;;;8.73;;
75793;SDS011;64418;47.536;19.074;2023-12-07T09:51:08;18.35;;;9.05;;
75793;SDS011;64418;47.536;19.074;2023-12-07T09:53:37;15.10;;;7.82;;
75793;SDS011;64418;47.536;19.074;2023-12-07T09:56:06;15.33;;;8.10;;
75793;SDS011;64418;47.536;19.074;2023-12-07T09:58:33;12.70;;;7.30;;
75793;SDS011;64418;47.536;19.074;2023-12-07T10:01:00;17.75;;;8.85;;
75793;SDS011;64418;47.536;19.074;2023-12-07T10:03:26;15.85;;;7.65;;
75793;SDS011;64418;47.536;19.074;2023-12-07T10:05:55;14.93;;;8.82;;
75793;SDS011;64418;47.536;19.074;2023-12-07T10:08:28;16.70;;;8.70;;
75793;SDS011;64418;47.536;19.074;2023-12-07T10:11:05;15.38;;;9.70;;
75793;SDS011;64418;47.536;19.074;2023-12-07T10:13:33;18.35;;;8.48;;
75793;SDS011;64418;47.536;19.074;2023-12-07T10:16:06;23.23;;;11.52;;
75793;SDS011;64418;47.536;19.074;2023-12-07T10:18:34;14.02;;;9.80;;
75793;SDS011;64418;47.536;19.074;2023-12-07T10:21:01;15.03;;;8.57;;
75793;SDS011;64418;47.536;19.074;2023-12-07T10:23:27;14.85;;;8.43;;
75793;SDS011;64418;47.536;19.074;2023-12-07T10:25:53;11.98;;;8.07;;
75793;SDS011;64418;47.536;19.074;2023-12-07T10:28:22;15.13;;;8.77;;
75793;SDS011;64418;47.536;19.074;2023-12-07T10:30:48;13.27;;;7.15;;
75793;SDS011;64418;47.536;19.074;2023-12-07T10:33:15;15.10;;;7.77;;
75793;SDS011;64418;47.536;19.074;2023-12-07T10:35:41;15.98;;;8.68;;
75793;SDS011;64418;47.536;19.074;2023-12-07T10:38:09;13.13;;;7.57;;
75793;SDS011;64418;47.536;19.074;2023-12-07T10:40:35;11.48;;;6.35;;
75793;SDS011;64418;47.536;19.074;2023-12-07T10:43:05;13.43;;;8.13;;
75793;SDS011;64418;47.536;19.074;2023-12-07T10:45:34;12.93;;;7.77;;
75793;SDS011;64418;47.536;19.074;2023-12-07T10:48:02;11.30;;;6.87;;
75793;SDS011;64418;47.536;19.074;2023-12-07T10:50:31;11.93;;;6.85;;
75793;SDS011;64418;47.536;19.074;2023-12-07T10:53:02;12.52;;;7.75;;
75793;SDS011;64418;47.536;19.074;2023-12-07T10:55:44;15.55;;;7.87;;
75793;SDS011;64418;47.536;19.074;2023-12-07T10:58:18;13.97;;;8.67;;
75793;SDS011;64418;47.536;19.074;2023-12-07T11:00:48;17.30;;;9.13;;
75793;SDS011;64418;47.536;19.074;2023-12-07T11:03:15;14.93;;;9.07;;
75793;SDS011;64418;47.536;19.074;2023-12-07T11:05:42;13.50;;;7.70;;
75793;SDS011;64418;47.536;19.074;2023-12-07T11:08:11;14.02;;;9.23;;
75793;SDS011;64418;47.536;19.074;2023-12-07T11:10:48;14.03;;;7.87;;
75793;SDS011;64418;47.536;19.074;2023-12-07T11:13:22;14.05;;;7.72;;
75793;SDS011;64418;47.536;19.074;2023-12-07T11:15:54;11.23;;;6.28;;
75793;SDS011;64418;47.536;19.074;2023-12-07T11:18:20;11.80;;;7.05;;
75793;SDS011;64418;47.536;19.074;2023-12-07T11:20:46;12.18;;;7.18;;
75793;SDS011;64418;47.536;19.074;2023-12-07T11:23:15;11.63;;;6.93;;
75793;SDS011;64418;47.536;19.074;2023-12-07T11:25:45;14.45;;;7.47;;
75793;SDS011;64418;47.536;19.074;2023-12-07T11:28:15;13.93;;;8.07;;
75793;SDS011;64418;47.536;19.074;2023-12-07T11:30:42;14.23;;;7.22;;
75793;SDS011;64418;47.536;19.074;2023-12-07T11:33:13;13.55;;;7.10;;
75793;SDS011;64418;47.536;19.074;2023-12-07T11:38:32;13.38;;;7.15;;
75793;SDS011;64418;47.536;19.074;2023-12-07T11:40:59;13.52;;;7.32;;
75793;SDS011;64418;47.536;19.074;2023-12-07T11:43:40;12.85;;;7.07;;
75793;SDS011;64418;47.536;19.074;2023-12-07T11:46:07;12.63;;;7.65;;
75793;SDS011;64418;47.536;19.074;2023-12-07T11:48:34;14.67;;;7.40;;
75793;SDS011;64418;47.536;19.074;2023-12-07T11:51:01;13.45;;;8.10;;
75793;SDS011;64418;47.536;19.074;2023-12-07T11:53:28;18.58;;;7.45;;
75793;SDS011;64418;47.536;19.074;2023-12-07T11:55:55;13.18;;;7.75;;
75793;SDS011;64418;47.536;19.074;2023-12-07T11:58:25;16.00;;;8.80;;
75793;SDS011;64418;47.536;19.074;2023-12-07T12:00:52;12.07;;;7.07;;
75793;SDS011;64418;47.536;19.074;2023-12-07T12:03:19;13.30;;;8.13;;
75793;SDS011;64418;47.536;19.074;2023-12-07T12:05:48;19.00;;;11.38;;
75793;SDS011;64418;47.536;19.074;2023-12-07T12:08:15;15.30;;;9.75;;
75793;SDS011;64418;47.536;19.074;2023-12-07T12:10:42;16.50;;;10.40;;
75793;SDS011;64418;47.536;19.074;2023-12-07T12:13:10;15.13;;;8.13;;
75793;SDS011;64418;47.536;19.074;2023-12-07T12:15:37;14.75;;;8.55;;
75793;SDS011;64418;47.536;19.074;2023-12-07T12:18:05;13.48;;;7.82;;
75793;SDS011;64418;47.536;19.074;2023-12-07T12:20:32;13.15;;;7.00;;
75793;SDS011;64418;47.536;19.074;2023-12-07T12:23:00;15.38;;;8.07;;
75793;SDS011;64418;47.536;19.074;2023-12-07T12:25:27;12.30;;;7.23;;
75793;SDS011;64418;47.536;19.074;2023-12-07T12:27:55;14.75;;;7.60;;
75793;SDS011;64418;47.536;19.074;2023-12-07T12:30:22;22.37;;;9.07;;
75793;SDS011;64418;47.536;19.074;2023-12-07T12:32:50;12.95;;;7.22;;
75793;SDS011;64418;47.536;19.074;2023-12-07T12:35:19;11.43;;;7.28;;
75793;SDS011;64418;47.536;19.074;2023-12-07T12:37:45;11.80;;;6.70;;
75793;SDS011;64418;47.536;19.074;2023-12-07T12:40:17;11.18;;;6.90;;
75793;SDS011;64418;47.536;19.074;2023-12-07T12:42:44;12.05;;;7.35;;
75793;SDS011;64418;47.536;19.074;2023-12-07T12:45:12;14.00;;;6.87;;
75793;SDS011;64418;47.536;19.074;2023-12-07T12:47:40;14.57;;;7.37;;
75793;SDS011;64418;47.536;19.074;2023-12-07T12:50:08;14.50;;;7.27;;
75793;SDS011;64418;47.536;19.074;2023-12-07T12:52:35;14.85;;;7.87;;
75793;SDS011;64418;47.536;19.074;2023-12-07T12:55:02;17.73;;;9.60;;
75793;SDS011;64418;47.536;19.074;2023-12-07T12:57:33;14.90;;;8.50;;
75793;SDS011;64418;47.536;19.074;2023-12-07T13:00:00;13.20;;;8.82;;
75793;SDS011;64418;47.536;19.074;2023-12-07T13:02:27;16.10;;;8.83;;
75793;SDS011;64418;47.536;19.074;2023-12-07T13:04:53;13.82;;;9.18;;
75793;SDS011;64418;47.536;19.074;2023-12-07T13:07:19;16.95;;;10.43;;
75793;SDS011;64418;47.536;19.074;2023-12-07T13:09:45;16.37;;;10.00;;
75793;SDS011;64418;47.536;19.074;2023-12-07T13:12:12;18.70;;;9.67;;
75793;SDS011;64418;47.536;19.074;2023-12-07T13:14:40;17.95;;;9.85;;
75793;SDS011;64418;47.536;19.074;2023-12-07T13:17:09;18.10;;;9.57;;
75793;SDS011;64418;47.536;19.074;2023-12-07T13:19:35;15.52;;;9.35;;
75793;SDS011;64418;47.536;19.074;2023-12-07T13:22:02;17.50;;;10.05;;
75793;SDS011;64418;47.536;19.074;2023-12-07T13:24:28;15.70;;;9.43;;
75793;SDS011;64418;47.536;19.074;2023-12-07T13:26:58;19.52;;;9.60;;
75793;SDS011;64418;47.536;19.074;2023-12-07T13:29:24;17.87;;;10.82;;
75793;SDS011;64418;47.536;19.074;2023-12-07T13:31:55;17.65;;;10.70;;
75793;SDS011;64418;47.536;19.074;2023-12-07T13:34:24;16.40;;;9.98;;
75793;SDS011;64418;47.536;19.074;2023-12-07T13:36:50;18.13;;;9.40;;
75793;SDS011;64418;47.536;19.074;2023-12-07T13:39:17;19.20;;;11.07;;
75793;SDS011;64418;47.536;19.074;2023-12-07T13:41:45;17.83;;;10.50;;
75793;SDS011;64418;47.536;19.074;2023-12-07T13:44:12;22.37;;;11.05;;
75793;SDS011;64418;47.536;19.074;2023-12-07T13:46:37;15.82;;;9.20;;
75793;SDS011;64418;47.536;19.074;2023-12-07T13:49:05;19.30;;;9.87;;
75793;SDS011;64418;47.536;19.074;2023-12-07T13:51:33;15.45;;;9.52;;
75793;SDS011;64418;47.536;19.074;2023-12-07T13:54:00;16.42;;;10.50;;
75793;SDS011;64418;47.536;19.074;2023-12-07T13:56:26;17.55;;;9.98;;
75793;SDS011;64418;47.536;19.074;2023-12-07T13:58:52;17.27;;;9.82;;
75793;SDS011;64418;47.536;19.074;2023-12-07T14:01:19;17.50;;;9.90;;
75793;SDS011;64418;47.536;19.074;2023-12-07T14:03:45;17.80;;;9.95;;
75793;SDS011;64418;47.536;19.074;2023-12-07T14:06:19;17.45;;;10.23;;
75793;SDS011;64418;47.536;19.074;2023-12-07T14:08:48;22.95;;;11.60;;
75793;SDS011;64418;47.536;19.074;2023-12-07T14:11:14;14.67;;;9.23;;
75793;SDS011;64418;47.536;19.074;2023-12-07T14:13:40;20.20;;;10.82;;
75793;SDS011;64418;47.536;19.074;2023-12-07T14:16:07;19.95;;;10.23;;
75793;SDS011;64418;47.536;19.074;2023-12-07T14:18:35;19.23;;;10.45;;
75793;SDS011;64418;47.536;19.074;2023-12-07T14:21:02;20.97;;;10.83;;
75793;SDS011;64418;47.536;19.074;2023-12-07T14:23:30;20.88;;;11.70;;
75793;SDS011;64418;47.536;19.074;2023-12-07T14:25:59;17.48;;;10.57;;
75793;SDS011;64418;47.536;19.074;2023-12-07T14:28:27;21.05;;;10.52;;